sensor_id;sensor_type;location;lat;lon;timestamp;temperature;humidity
50947;DHT22;36955;47.416;7.716;2022-10-16T00:00:00;14.60;99.90
50947;DHT22;36955;47.416;7.716;2022-10-16T00:02:26;14.70;99.90
50947;DHT22;36955;47.416;7.716;2022-10-16T00:04:52;14.60;99.90
50947;DHT22;36955;47.416;7.716;2022-10-16T00:07:18;14.60;99.90
50947;DHT22;36955;47.416;7.716;2022-10-16T00:09:45;14.50;99.90
50947;DHT22;36955;47.416;7.716;2022-10-16T00:12:11;14.40;99.90
50947;DHT22;36955;47.416;7.716;2022-10-16T00:14:37;14.40;99.90
50947;DHT22;36955;47.416;7.716;2022-10-16T00:17:04;14.40;99.90
50947;DHT22;36955;47.416;7.716;2022-10-16T00:19:30;14.50;99.90
50947;DHT22;36955;47.416;7.716;2022-10-16T00:21:56;14.50;99.90
50947;DHT22;36955;47.416;7.716;2022-10-16T00:24:22;14.60;99.90
50947;DHT22;36955;47.416;7.716;2022-10-16T00:26:49;14.70;99.90
50947;DHT22;36955;47.416;7.716;2022-10-16T00:29:15;14.70;99.90
50947;DHT22;36955;47.416;7.716;2022-10-16T00:31:41;14.70;99.90
50947;DHT22;36955;47.416;7.716;2022-10-16T00:34:07;14.60;99.90
50947;DHT22;36955;47.416;7.716;2022-10-16T00:36:33;14.60;99.90
50947;DHT22;36955;47.416;7.716;2022-10-16T00:38:59;14.60;99.90
50947;DHT22;36955;47.416;7.716;2022-10-16T00:41:26;14.60;99.90
50947;DHT22;36955;47.416;7.716;2022-10-16T00:43:55;14.60;99.90
50947;DHT22;36955;47.416;7.716;2022-10-16T00:51:30;14.80;99.90
50947;DHT22;36955;47.416;7.716;2022-10-16T00:53:56;14.80;99.90
50947;DHT22;36955;47.416;7.716;2022-10-16T00:56:23;14.90;99.90
50947;DHT22;36955;47.416;7.716;2022-10-16T00:58:49;14.90;99.90
50947;DHT22;36955;47.416;7.716;2022-10-16T01:01:15;14.90;99.90
50947;DHT22;36955;47.416;7.716;2022-10-16T01:03:41;14.90;99.90
50947;DHT22;36955;47.416;7.716;2022-10-16T01:14:00;14.90;99.90
50947;DHT22;36955;47.416;7.716;2022-10-16T01:19:20;14.80;99.90
50947;DHT22;36955;47.416;7.716;2022-10-16T01:21:53;14.70;99.90
50947;DHT22;36955;47.416;7.716;2022-10-16T01:24:38;14.70;99.90
50947;DHT22;36955;47.416;7.716;2022-10-16T01:30:13;14.60;99.90
50947;DHT22;36955;47.416;7.716;2022-10-16T01:33:01;14.60;99.90
50947;DHT22;36955;47.416;7.716;2022-10-16T01:35:42;14.60;99.90
50947;DHT22;36955;47.416;7.716;2022-10-16T01:40:50;14.50;99.90
50947;DHT22;36955;47.416;7.716;2022-10-16T01:43:24;14.60;99.90
50947;DHT22;36955;47.416;7.716;2022-10-16T01:45:52;14.60;99.90
50947;DHT22;36955;47.416;7.716;2022-10-16T01:48:19;14.60;99.90
50947;DHT22;36955;47.416;7.716;2022-10-16T01:50:57;14.50;99.90
50947;DHT22;36955;47.416;7.716;2022-10-16T01:53:26;14.40;99.90
50947;DHT22;36955;47.416;7.716;2022-10-16T01:55:54;14.30;99.90
50947;DHT22;36955;47.416;7.716;2022-10-16T01:58:22;14.30;99.90
50947;DHT22;36955;47.416;7.716;2022-10-16T02:00:50;14.20;99.90
50947;DHT22;36955;47.416;7.716;2022-10-16T02:03:18;14.30;99.90
50947;DHT22;36955;47.416;7.716;2022-10-16T02:05:56;14.40;99.90
50947;DHT22;36955;47.416;7.716;2022-10-16T02:08:24;14.50;99.90
50947;DHT22;36955;47.416;7.716;2022-10-16T02:10:51;14.40;99.90
50947;DHT22;36955;47.416;7.716;2022-10-16T02:13:48;14.30;99.90
50947;DHT22;36955;47.416;7.716;2022-10-16T02:16:16;14.20;99.90
50947;DHT22;36955;47.416;7.716;2022-10-16T02:18:43;14.10;99.90
50947;DHT22;36955;47.416;7.716;2022-10-16T02:21:29;14.00;99.90
50947;DHT22;36955;47.416;7.716;2022-10-16T02:24:06;14.00;99.90
50947;DHT22;36955;47.416;7.716;2022-10-16T02:26:49;14.00;99.90
50947;DHT22;36955;47.416;7.716;2022-10-16T02:29:20;14.00;99.90
50947;DHT22;36955;47.416;7.716;2022-10-16T02:31:50;14.10;99.90
50947;DHT22;36955;47.416;7.716;2022-10-16T02:34:18;14.00;99.90
50947;DHT22;36955;47.416;7.716;2022-10-16T02:36:45;14.10;99.90
50947;DHT22;36955;47.416;7.716;2022-10-16T02:39:13;14.00;99.90
50947;DHT22;36955;47.416;7.716;2022-10-16T02:41:40;14.10;99.90
50947;DHT22;36955;47.416;7.716;2022-10-16T02:44:06;14.10;99.90
50947;DHT22;36955;47.416;7.716;2022-10-16T02:46:32;14.00;99.90
50947;DHT22;36955;47.416;7.716;2022-10-16T02:48:58;14.00;99.90
50947;DHT22;36955;47.416;7.716;2022-10-16T02:51:24;14.00;99.90
50947;DHT22;36955;47.416;7.716;2022-10-16T02:53:50;14.10;99.90
50947;DHT22;36955;47.416;7.716;2022-10-16T02:56:16;14.20;99.90
50947;DHT22;36955;47.416;7.716;2022-10-16T02:58:42;14.20;99.90
50947;DHT22;36955;47.416;7.716;2022-10-16T03:01:08;14.20;99.90
50947;DHT22;36955;47.416;7.716;2022-10-16T03:03:34;14.30;99.90
50947;DHT22;36955;47.416;7.716;2022-10-16T03:06:00;14.30;99.90
50947;DHT22;36955;47.416;7.716;2022-10-16T03:08:26;14.40;99.90
50947;DHT22;36955;47.416;7.716;2022-10-16T03:10:52;14.30;99.90
50947;DHT22;36955;47.416;7.716;2022-10-16T03:13:18;14.30;99.90
50947;DHT22;36955;47.416;7.716;2022-10-16T03:15:44;14.30;99.90
50947;DHT22;36955;47.416;7.716;2022-10-16T03:18:10;14.30;99.90
50947;DHT22;36955;47.416;7.716;2022-10-16T03:20:36;14.30;99.90
50947;DHT22;36955;47.416;7.716;2022-10-16T03:23:02;14.40;99.90
50947;DHT22;36955;47.416;7.716;2022-10-16T03:25:28;14.40;99.90
50947;DHT22;36955;47.416;7.716;2022-10-16T03:27:54;14.50;99.90
50947;DHT22;36955;47.416;7.716;2022-10-16T03:30:20;14.50;99.90
50947;DHT22;36955;47.416;7.716;2022-10-16T03:32:47;14.50;99.90
50947;DHT22;36955;47.416;7.716;2022-10-16T03:35:13;14.50;99.90
50947;DHT22;36955;47.416;7.716;2022-10-16T03:37:39;14.50;99.90
50947;DHT22;36955;47.416;7.716;2022-10-16T03:40:05;14.60;99.90
50947;DHT22;36955;47.416;7.716;2022-10-16T03:42:31;14.70;99.90
50947;DHT22;36955;47.416;7.716;2022-10-16T03:44:57;14.70;99.90
50947;DHT22;36955;47.416;7.716;2022-10-16T03:47:23;14.70;99.90
50947;DHT22;36955;47.416;7.716;2022-10-16T03:49:49;14.70;99.90
50947;DHT22;36955;47.416;7.716;2022-10-16T03:52:16;14.60;99.90
50947;DHT22;36955;47.416;7.716;2022-10-16T03:54:42;14.60;99.90
50947;DHT22;36955;47.416;7.716;2022-10-16T03:57:08;14.60;99.90
50947;DHT22;36955;47.416;7.716;2022-10-16T03:59:34;14.60;99.90
50947;DHT22;36955;47.416;7.716;2022-10-16T04:02:00;14.60;99.90
50947;DHT22;36955;47.416;7.716;2022-10-16T04:04:26;14.60;99.90
50947;DHT22;36955;47.416;7.716;2022-10-16T04:06:52;14.60;99.90
50947;DHT22;36955;47.416;7.716;2022-10-16T04:09:18;14.70;99.90
50947;DHT22;36955;47.416;7.716;2022-10-16T04:11:44;14.70;99.90
50947;DHT22;36955;47.416;7.716;2022-10-16T04:14:10;14.70;99.90
50947;DHT22;36955;47.416;7.716;2022-10-16T04:16:36;14.70;99.90
50947;DHT22;36955;47.416;7.716;2022-10-16T04:19:02;14.70;99.90
50947;DHT22;36955;47.416;7.716;2022-10-16T04:21:28;14.70;99.90
50947;DHT22;36955;47.416;7.716;2022-10-16T04:23:54;14.60;99.90
50947;DHT22;36955;47.416;7.716;2022-10-16T04:26:20;14.50;99.90
50947;DHT22;36955;47.416;7.716;2022-10-16T04:28:46;14.50;99.90
50947;DHT22;36955;47.416;7.716;2022-10-16T04:31:12;14.60;99.90
50947;DHT22;36955;47.416;7.716;2022-10-16T04:33:38;14.60;99.90
50947;DHT22;36955;47.416;7.716;2022-10-16T04:36:04;14.60;99.90
50947;DHT22;36955;47.416;7.716;2022-10-16T04:38:31;14.70;99.90
50947;DHT22;36955;47.416;7.716;2022-10-16T04:40:57;14.70;99.90
50947;DHT22;36955;47.416;7.716;2022-10-16T04:43:23;14.70;99.90
50947;DHT22;36955;47.416;7.716;2022-10-16T04:45:49;14.80;99.90
50947;DHT22;36955;47.416;7.716;2022-10-16T04:48:15;14.80;99.90
50947;DHT22;36955;47.416;7.716;2022-10-16T04:50:41;14.80;99.90
50947;DHT22;36955;47.416;7.716;2022-10-16T04:53:07;14.90;99.90
50947;DHT22;36955;47.416;7.716;2022-10-16T04:55:33;14.90;99.90
50947;DHT22;36955;47.416;7.716;2022-10-16T04:57:59;14.90;99.90
50947;DHT22;36955;47.416;7.716;2022-10-16T05:00:25;14.90;99.90
50947;DHT22;36955;47.416;7.716;2022-10-16T05:02:51;14.90;99.90
50947;DHT22;36955;47.416;7.716;2022-10-16T05:05:17;14.90;99.90
50947;DHT22;36955;47.416;7.716;2022-10-16T05:07:43;14.90;99.90
50947;DHT22;36955;47.416;7.716;2022-10-16T05:10:09;14.90;99.90
50947;DHT22;36955;47.416;7.716;2022-10-16T05:12:35;14.90;99.90
50947;DHT22;36955;47.416;7.716;2022-10-16T05:15:02;14.90;99.90
50947;DHT22;36955;47.416;7.716;2022-10-16T05:17:28;14.90;99.90
50947;DHT22;36955;47.416;7.716;2022-10-16T05:19:54;14.90;99.90
50947;DHT22;36955;47.416;7.716;2022-10-16T05:22:20;14.90;99.90
50947;DHT22;36955;47.416;7.716;2022-10-16T05:24:46;15.00;99.90
50947;DHT22;36955;47.416;7.716;2022-10-16T05:27:12;15.10;99.90
50947;DHT22;36955;47.416;7.716;2022-10-16T05:29:38;15.20;99.90
50947;DHT22;36955;47.416;7.716;2022-10-16T05:32:04;15.30;99.90
50947;DHT22;36955;47.416;7.716;2022-10-16T05:34:30;15.30;99.90
50947;DHT22;36955;47.416;7.716;2022-10-16T05:36:56;15.30;99.90
50947;DHT22;36955;47.416;7.716;2022-10-16T05:39:22;15.30;99.90
50947;DHT22;36955;47.416;7.716;2022-10-16T05:41:50;15.40;99.90
50947;DHT22;36955;47.416;7.716;2022-10-16T05:44:16;15.50;99.90
50947;DHT22;36955;47.416;7.716;2022-10-16T05:46:42;15.60;99.90
50947;DHT22;36955;47.416;7.716;2022-10-16T05:49:08;15.60;99.90
50947;DHT22;36955;47.416;7.716;2022-10-16T05:51:34;15.50;99.90
50947;DHT22;36955;47.416;7.716;2022-10-16T05:54:00;15.50;99.90
50947;DHT22;36955;47.416;7.716;2022-10-16T05:56:26;15.50;99.90
50947;DHT22;36955;47.416;7.716;2022-10-16T05:58:52;15.40;99.90
50947;DHT22;36955;47.416;7.716;2022-10-16T06:01:19;15.30;99.90
50947;DHT22;36955;47.416;7.716;2022-10-16T06:03:45;15.30;99.90
50947;DHT22;36955;47.416;7.716;2022-10-16T06:06:14;15.20;99.90
50947;DHT22;36955;47.416;7.716;2022-10-16T06:08:41;15.10;99.90
50947;DHT22;36955;47.416;7.716;2022-10-16T06:11:11;15.10;99.90
50947;DHT22;36955;47.416;7.716;2022-10-16T06:13:38;14.90;99.90
50947;DHT22;36955;47.416;7.716;2022-10-16T06:16:04;14.80;99.90
50947;DHT22;36955;47.416;7.716;2022-10-16T06:18:30;14.80;99.90
50947;DHT22;36955;47.416;7.716;2022-10-16T06:20:57;14.60;99.90
50947;DHT22;36955;47.416;7.716;2022-10-16T06:23:24;14.60;99.90
50947;DHT22;36955;47.416;7.716;2022-10-16T06:25:50;14.50;99.90
50947;DHT22;36955;47.416;7.716;2022-10-16T06:28:16;14.50;99.90
50947;DHT22;36955;47.416;7.716;2022-10-16T06:30:42;14.50;99.90
50947;DHT22;36955;47.416;7.716;2022-10-16T06:33:09;14.50;99.90
50947;DHT22;36955;47.416;7.716;2022-10-16T06:35:35;14.60;99.90
50947;DHT22;36955;47.416;7.716;2022-10-16T06:38:01;14.60;99.90
50947;DHT22;36955;47.416;7.716;2022-10-16T06:40:27;14.70;99.90
50947;DHT22;36955;47.416;7.716;2022-10-16T06:42:56;14.70;99.90
50947;DHT22;36955;47.416;7.716;2022-10-16T06:45:22;14.80;99.90
50947;DHT22;36955;47.416;7.716;2022-10-16T06:47:48;14.90;99.90
50947;DHT22;36955;47.416;7.716;2022-10-16T06:50:14;15.00;99.90
50947;DHT22;36955;47.416;7.716;2022-10-16T06:52:40;15.00;99.90
50947;DHT22;36955;47.416;7.716;2022-10-16T06:55:07;15.20;99.90
50947;DHT22;36955;47.416;7.716;2022-10-16T06:57:33;15.20;99.90
50947;DHT22;36955;47.416;7.716;2022-10-16T06:59:59;15.20;99.90
50947;DHT22;36955;47.416;7.716;2022-10-16T07:02:25;15.10;99.90
50947;DHT22;36955;47.416;7.716;2022-10-16T07:04:51;15.10;99.90
50947;DHT22;36955;47.416;7.716;2022-10-16T07:07:17;15.10;99.90
50947;DHT22;36955;47.416;7.716;2022-10-16T07:09:43;15.10;99.90
50947;DHT22;36955;47.416;7.716;2022-10-16T07:12:09;15.10;99.90
50947;DHT22;36955;47.416;7.716;2022-10-16T07:14:35;15.00;99.90
50947;DHT22;36955;47.416;7.716;2022-10-16T07:17:01;15.10;99.90
50947;DHT22;36955;47.416;7.716;2022-10-16T07:19:27;15.10;99.90
50947;DHT22;36955;47.416;7.716;2022-10-16T07:21:53;15.20;99.90
50947;DHT22;36955;47.416;7.716;2022-10-16T07:24:19;15.30;99.90
50947;DHT22;36955;47.416;7.716;2022-10-16T07:26:46;15.30;99.90
50947;DHT22;36955;47.416;7.716;2022-10-16T07:29:20;15.40;99.90
50947;DHT22;36955;47.416;7.716;2022-10-16T07:31:48;15.50;99.90
50947;DHT22;36955;47.416;7.716;2022-10-16T07:34:16;15.80;99.90
50947;DHT22;36955;47.416;7.716;2022-10-16T07:36:42;16.00;99.90
50947;DHT22;36955;47.416;7.716;2022-10-16T07:39:08;16.20;99.90
50947;DHT22;36955;47.416;7.716;2022-10-16T07:41:34;16.40;99.90
50947;DHT22;36955;47.416;7.716;2022-10-16T07:44:01;16.60;99.90
50947;DHT22;36955;47.416;7.716;2022-10-16T07:46:28;16.70;99.90
50947;DHT22;36955;47.416;7.716;2022-10-16T07:48:54;16.90;99.90
50947;DHT22;36955;47.416;7.716;2022-10-16T07:51:22;17.00;99.90
50947;DHT22;36955;47.416;7.716;2022-10-16T07:53:49;17.20;99.90
50947;DHT22;36955;47.416;7.716;2022-10-16T07:56:16;17.30;99.90
50947;DHT22;36955;47.416;7.716;2022-10-16T07:58:43;17.40;99.90
50947;DHT22;36955;47.416;7.716;2022-10-16T08:01:11;17.50;99.90
50947;DHT22;36955;47.416;7.716;2022-10-16T08:03:37;17.60;99.90
50947;DHT22;36955;47.416;7.716;2022-10-16T08:06:04;17.60;99.90
50947;DHT22;36955;47.416;7.716;2022-10-16T08:08:30;17.70;99.90
50947;DHT22;36955;47.416;7.716;2022-10-16T08:10:56;17.70;99.90
50947;DHT22;36955;47.416;7.716;2022-10-16T08:13:22;17.80;99.90
50947;DHT22;36955;47.416;7.716;2022-10-16T08:15:48;17.90;99.90
50947;DHT22;36955;47.416;7.716;2022-10-16T08:18:15;18.00;99.90
50947;DHT22;36955;47.416;7.716;2022-10-16T08:20:42;18.10;99.90
50947;DHT22;36955;47.416;7.716;2022-10-16T08:23:12;18.20;99.90
50947;DHT22;36955;47.416;7.716;2022-10-16T08:25:39;18.30;99.90
50947;DHT22;36955;47.416;7.716;2022-10-16T08:28:06;18.40;99.90
50947;DHT22;36955;47.416;7.716;2022-10-16T08:30:33;18.40;99.90
50947;DHT22;36955;47.416;7.716;2022-10-16T08:32:59;18.50;99.90
50947;DHT22;36955;47.416;7.716;2022-10-16T08:35:25;18.40;99.90
50947;DHT22;36955;47.416;7.716;2022-10-16T08:37:51;18.20;99.90
50947;DHT22;36955;47.416;7.716;2022-10-16T08:40:28;18.10;99.90
50947;DHT22;36955;47.416;7.716;2022-10-16T08:48:49;17.90;99.90
50947;DHT22;36955;47.416;7.716;2022-10-16T08:51:23;18.00;99.90
50947;DHT22;36955;47.416;7.716;2022-10-16T08:53:58;18.10;99.90
50947;DHT22;36955;47.416;7.716;2022-10-16T08:56:25;18.20;99.90
50947;DHT22;36955;47.416;7.716;2022-10-16T08:58:53;18.30;99.90
50947;DHT22;36955;47.416;7.716;2022-10-16T09:01:21;18.40;99.90
50947;DHT22;36955;47.416;7.716;2022-10-16T09:13:18;19.00;99.90
50947;DHT22;36955;47.416;7.716;2022-10-16T09:15:40;18.90;99.90
50947;DHT22;36955;47.416;7.716;2022-10-16T09:18:27;18.80;99.90
50947;DHT22;36955;47.416;7.716;2022-10-16T09:23:38;18.60;99.90
50947;DHT22;36955;47.416;7.716;2022-10-16T09:26:05;18.60;99.90
50947;DHT22;36955;47.416;7.716;2022-10-16T09:28:35;18.60;99.90
50947;DHT22;36955;47.416;7.716;2022-10-16T09:31:01;18.70;99.90
50947;DHT22;36955;47.416;7.716;2022-10-16T09:33:33;18.70;99.90
50947;DHT22;36955;47.416;7.716;2022-10-16T09:36:03;18.70;99.90
50947;DHT22;36955;47.416;7.716;2022-10-16T09:38:35;18.70;99.90
50947;DHT22;36955;47.416;7.716;2022-10-16T09:41:10;18.70;99.90
50947;DHT22;36955;47.416;7.716;2022-10-16T09:43:41;18.70;99.90
50947;DHT22;36955;47.416;7.716;2022-10-16T09:46:25;18.60;99.90
50947;DHT22;36955;47.416;7.716;2022-10-16T09:48:57;18.60;99.90
50947;DHT22;36955;47.416;7.716;2022-10-16T09:51:32;18.60;99.90
50947;DHT22;36955;47.416;7.716;2022-10-16T09:54:16;18.60;99.90
50947;DHT22;36955;47.416;7.716;2022-10-16T09:56:42;18.70;99.90
50947;DHT22;36955;47.416;7.716;2022-10-16T09:59:19;18.70;99.90
50947;DHT22;36955;47.416;7.716;2022-10-16T10:04:13;18.80;99.90
50947;DHT22;36955;47.416;7.716;2022-10-16T10:06:43;18.80;99.90
50947;DHT22;36955;47.416;7.716;2022-10-16T10:12:05;19.00;99.90
50947;DHT22;36955;47.416;7.716;2022-10-16T10:14:44;19.10;99.90
50947;DHT22;36955;47.416;7.716;2022-10-16T10:17:15;19.20;99.90
50947;DHT22;36955;47.416;7.716;2022-10-16T10:19:46;19.20;99.90
50947;DHT22;36955;47.416;7.716;2022-10-16T10:25:15;19.30;99.90
50947;DHT22;36955;47.416;7.716;2022-10-16T10:28:15;19.40;99.90
50947;DHT22;36955;47.416;7.716;2022-10-16T10:37:08;19.70;99.90
50947;DHT22;36955;47.416;7.716;2022-10-16T10:39:44;19.90;99.90
50947;DHT22;36955;47.416;7.716;2022-10-16T10:42:34;19.90;99.90
50947;DHT22;36955;47.416;7.716;2022-10-16T10:45:24;20.00;99.90
50947;DHT22;36955;47.416;7.716;2022-10-16T10:51:06;20.10;99.90
50947;DHT22;36955;47.416;7.716;2022-10-16T10:56:39;20.30;99.90
50947;DHT22;36955;47.416;7.716;2022-10-16T11:02:01;20.50;99.90
50947;DHT22;36955;47.416;7.716;2022-10-16T11:07:28;20.40;99.90
50947;DHT22;36955;47.416;7.716;2022-10-16T11:10:15;20.40;99.90
50947;DHT22;36955;47.416;7.716;2022-10-16T11:12:45;20.40;99.90
50947;DHT22;36955;47.416;7.716;2022-10-16T11:15:20;20.50;99.90
50947;DHT22;36955;47.416;7.716;2022-10-16T11:20:30;20.90;99.90
50947;DHT22;36955;47.416;7.716;2022-10-16T11:23:02;21.10;99.90
50947;DHT22;36955;47.416;7.716;2022-10-16T11:25:32;21.30;99.90
50947;DHT22;36955;47.416;7.716;2022-10-16T11:28:16;21.40;99.90
50947;DHT22;36955;47.416;7.716;2022-10-16T11:36:14;21.80;99.90
50947;DHT22;36955;47.416;7.716;2022-10-16T11:46:40;22.00;99.90
50947;DHT22;36955;47.416;7.716;2022-10-16T11:49:15;21.90;99.90
50947;DHT22;36955;47.416;7.716;2022-10-16T11:51:57;21.90;99.90
50947;DHT22;36955;47.416;7.716;2022-10-16T11:54:39;21.90;99.90
50947;DHT22;36955;47.416;7.716;2022-10-16T11:57:16;21.90;99.90
50947;DHT22;36955;47.416;7.716;2022-10-16T11:59:55;21.90;99.90
50947;DHT22;36955;47.416;7.716;2022-10-16T12:08:27;21.90;99.90
50947;DHT22;36955;47.416;7.716;2022-10-16T12:11:03;21.80;99.90
50947;DHT22;36955;47.416;7.716;2022-10-16T12:13:36;21.80;99.90
50947;DHT22;36955;47.416;7.716;2022-10-16T12:18:38;21.70;99.90
50947;DHT22;36955;47.416;7.716;2022-10-16T12:21:05;21.70;99.90
50947;DHT22;36955;47.416;7.716;2022-10-16T12:23:32;21.60;99.90
50947;DHT22;36955;47.416;7.716;2022-10-16T12:26:00;21.60;99.90
50947;DHT22;36955;47.416;7.716;2022-10-16T12:28:28;21.70;99.90
50947;DHT22;36955;47.416;7.716;2022-10-16T12:31:05;21.70;99.90
50947;DHT22;36955;47.416;7.716;2022-10-16T12:33:33;21.80;99.90
50947;DHT22;36955;47.416;7.716;2022-10-16T12:36:04;21.90;99.90
50947;DHT22;36955;47.416;7.716;2022-10-16T12:38:46;22.00;99.90
50947;DHT22;36955;47.416;7.716;2022-10-16T12:41:12;22.10;99.90
50947;DHT22;36955;47.416;7.716;2022-10-16T12:43:49;22.00;99.90
50947;DHT22;36955;47.416;7.716;2022-10-16T12:48:43;22.10;99.90
50947;DHT22;36955;47.416;7.716;2022-10-16T12:51:12;22.10;99.90
50947;DHT22;36955;47.416;7.716;2022-10-16T12:53:38;22.20;99.90
50947;DHT22;36955;47.416;7.716;2022-10-16T13:01:40;22.30;99.90
50947;DHT22;36955;47.416;7.716;2022-10-16T13:18:48;22.60;99.90
50947;DHT22;36955;47.416;7.716;2022-10-16T13:24:03;22.60;99.90
50947;DHT22;36955;47.416;7.716;2022-10-16T13:29:10;22.70;99.90
50947;DHT22;36955;47.416;7.716;2022-10-16T13:31:38;22.70;99.90
50947;DHT22;36955;47.416;7.716;2022-10-16T13:34:05;22.70;99.90
50947;DHT22;36955;47.416;7.716;2022-10-16T13:36:49;22.80;99.90
50947;DHT22;36955;47.416;7.716;2022-10-16T13:42:11;22.90;99.90
50947;DHT22;36955;47.416;7.716;2022-10-16T13:44:44;22.90;99.90
50947;DHT22;36955;47.416;7.716;2022-10-16T13:47:22;22.90;99.90
50947;DHT22;36955;47.416;7.716;2022-10-16T13:50:09;23.10;99.90
50947;DHT22;36955;47.416;7.716;2022-10-16T13:52:35;23.20;99.90
50947;DHT22;36955;47.416;7.716;2022-10-16T13:55:01;23.30;99.90
50947;DHT22;36955;47.416;7.716;2022-10-16T13:57:27;23.30;99.90
50947;DHT22;36955;47.416;7.716;2022-10-16T13:59:54;23.40;99.90
50947;DHT22;36955;47.416;7.716;2022-10-16T14:02:36;23.30;99.90
50947;DHT22;36955;47.416;7.716;2022-10-16T14:05:04;23.20;99.90
50947;DHT22;36955;47.416;7.716;2022-10-16T14:07:34;23.20;99.90
50947;DHT22;36955;47.416;7.716;2022-10-16T14:10:05;23.30;99.90
50947;DHT22;36955;47.416;7.716;2022-10-16T14:12:32;23.50;99.90
50947;DHT22;36955;47.416;7.716;2022-10-16T14:15:00;23.60;99.90
50947;DHT22;36955;47.416;7.716;2022-10-16T14:17:31;23.70;99.90
50947;DHT22;36955;47.416;7.716;2022-10-16T14:20:00;23.70;99.90
50947;DHT22;36955;47.416;7.716;2022-10-16T14:22:36;23.60;99.90
50947;DHT22;36955;47.416;7.716;2022-10-16T14:28:01;23.10;99.90
50947;DHT22;36955;47.416;7.716;2022-10-16T14:30:28;23.00;99.90
50947;DHT22;36955;47.416;7.716;2022-10-16T14:32:58;22.90;99.90
50947;DHT22;36955;47.416;7.716;2022-10-16T14:35:33;22.90;99.90
50947;DHT22;36955;47.416;7.716;2022-10-16T14:38:01;22.80;99.90
50947;DHT22;36955;47.416;7.716;2022-10-16T14:40:30;22.70;99.90
50947;DHT22;36955;47.416;7.716;2022-10-16T14:42:57;22.50;99.90
50947;DHT22;36955;47.416;7.716;2022-10-16T14:45:29;22.40;99.90
50947;DHT22;36955;47.416;7.716;2022-10-16T14:47:58;22.30;99.90
50947;DHT22;36955;47.416;7.716;2022-10-16T14:50:24;22.20;99.90
50947;DHT22;36955;47.416;7.716;2022-10-16T14:52:50;22.00;99.90
50947;DHT22;36955;47.416;7.716;2022-10-16T14:55:17;21.70;99.90
50947;DHT22;36955;47.416;7.716;2022-10-16T14:57:44;21.50;99.90
50947;DHT22;36955;47.416;7.716;2022-10-16T15:00:19;21.50;99.90
50947;DHT22;36955;47.416;7.716;2022-10-16T15:02:46;21.40;99.90
50947;DHT22;36955;47.416;7.716;2022-10-16T15:05:22;21.40;99.90
50947;DHT22;36955;47.416;7.716;2022-10-16T15:07:48;21.40;99.90
50947;DHT22;36955;47.416;7.716;2022-10-16T15:10:16;21.20;99.90
50947;DHT22;36955;47.416;7.716;2022-10-16T15:12:42;21.20;99.90
50947;DHT22;36955;47.416;7.716;2022-10-16T15:17:43;21.00;99.90
50947;DHT22;36955;47.416;7.716;2022-10-16T15:20:09;20.90;99.90
50947;DHT22;36955;47.416;7.716;2022-10-16T15:22:35;20.90;99.90
50947;DHT22;36955;47.416;7.716;2022-10-16T15:25:01;20.90;99.90
50947;DHT22;36955;47.416;7.716;2022-10-16T15:27:28;20.90;99.90
50947;DHT22;36955;47.416;7.716;2022-10-16T15:29:54;20.80;99.90
50947;DHT22;36955;47.416;7.716;2022-10-16T15:32:20;20.80;99.90
50947;DHT22;36955;47.416;7.716;2022-10-16T15:34:46;20.80;99.90
50947;DHT22;36955;47.416;7.716;2022-10-16T15:37:12;20.80;99.90
50947;DHT22;36955;47.416;7.716;2022-10-16T15:39:38;20.70;99.90
50947;DHT22;36955;47.416;7.716;2022-10-16T15:42:04;20.60;99.90
50947;DHT22;36955;47.416;7.716;2022-10-16T15:44:30;20.60;99.90
50947;DHT22;36955;47.416;7.716;2022-10-16T15:46:56;20.50;99.90
50947;DHT22;36955;47.416;7.716;2022-10-16T15:49:22;20.50;99.90
50947;DHT22;36955;47.416;7.716;2022-10-16T15:51:48;20.50;99.90
50947;DHT22;36955;47.416;7.716;2022-10-16T15:54:14;20.50;99.90
50947;DHT22;36955;47.416;7.716;2022-10-16T15:56:40;20.40;99.90
50947;DHT22;36955;47.416;7.716;2022-10-16T15:59:06;20.30;99.90
50947;DHT22;36955;47.416;7.716;2022-10-16T16:01:33;20.20;99.90
50947;DHT22;36955;47.416;7.716;2022-10-16T16:04:00;20.10;99.90
50947;DHT22;36955;47.416;7.716;2022-10-16T16:06:26;20.10;99.90
50947;DHT22;36955;47.416;7.716;2022-10-16T16:08:52;20.00;99.90
50947;DHT22;36955;47.416;7.716;2022-10-16T16:11:19;20.00;99.90
50947;DHT22;36955;47.416;7.716;2022-10-16T16:13:45;19.90;99.90
50947;DHT22;36955;47.416;7.716;2022-10-16T16:16:13;19.80;99.90
50947;DHT22;36955;47.416;7.716;2022-10-16T16:18:40;19.80;99.90
50947;DHT22;36955;47.416;7.716;2022-10-16T16:21:06;19.70;99.90
50947;DHT22;36955;47.416;7.716;2022-10-16T16:23:33;19.70;99.90
50947;DHT22;36955;47.416;7.716;2022-10-16T16:26:13;19.60;99.90
50947;DHT22;36955;47.416;7.716;2022-10-16T16:28:41;19.60;99.90
50947;DHT22;36955;47.416;7.716;2022-10-16T16:31:08;19.50;99.90
50947;DHT22;36955;47.416;7.716;2022-10-16T16:33:34;19.50;99.90
50947;DHT22;36955;47.416;7.716;2022-10-16T16:36:03;19.50;99.90
50947;DHT22;36955;47.416;7.716;2022-10-16T16:38:30;19.50;99.90
50947;DHT22;36955;47.416;7.716;2022-10-16T16:40:57;19.50;99.90
50947;DHT22;36955;47.416;7.716;2022-10-16T16:43:27;19.50;99.90
50947;DHT22;36955;47.416;7.716;2022-10-16T16:45:54;19.40;99.90
50947;DHT22;36955;47.416;7.716;2022-10-16T16:48:20;19.40;99.90
50947;DHT22;36955;47.416;7.716;2022-10-16T16:50:46;19.40;99.90
50947;DHT22;36955;47.416;7.716;2022-10-16T16:53:12;19.40;99.90
50947;DHT22;36955;47.416;7.716;2022-10-16T16:55:38;19.40;99.90
50947;DHT22;36955;47.416;7.716;2022-10-16T16:58:04;19.40;99.90
50947;DHT22;36955;47.416;7.716;2022-10-16T17:00:30;19.30;99.90
50947;DHT22;36955;47.416;7.716;2022-10-16T17:02:57;19.30;99.90
50947;DHT22;36955;47.416;7.716;2022-10-16T17:05:23;19.30;99.90
50947;DHT22;36955;47.416;7.716;2022-10-16T17:07:49;19.30;99.90
50947;DHT22;36955;47.416;7.716;2022-10-16T17:10:15;19.30;99.90
50947;DHT22;36955;47.416;7.716;2022-10-16T17:12:41;19.20;99.90
50947;DHT22;36955;47.416;7.716;2022-10-16T17:15:07;19.10;99.90
50947;DHT22;36955;47.416;7.716;2022-10-16T17:17:34;19.00;99.90
50947;DHT22;36955;47.416;7.716;2022-10-16T17:20:00;18.90;99.90
50947;DHT22;36955;47.416;7.716;2022-10-16T17:22:26;18.90;99.90
50947;DHT22;36955;47.416;7.716;2022-10-16T17:24:52;18.90;99.90
50947;DHT22;36955;47.416;7.716;2022-10-16T17:27:18;18.90;99.90
50947;DHT22;36955;47.416;7.716;2022-10-16T17:29:44;18.90;99.90
50947;DHT22;36955;47.416;7.716;2022-10-16T17:32:10;18.80;99.90
50947;DHT22;36955;47.416;7.716;2022-10-16T17:34:36;18.70;99.90
50947;DHT22;36955;47.416;7.716;2022-10-16T17:37:03;18.70;99.90
50947;DHT22;36955;47.416;7.716;2022-10-16T17:39:29;18.70;99.90
50947;DHT22;36955;47.416;7.716;2022-10-16T17:41:55;18.70;99.90
50947;DHT22;36955;47.416;7.716;2022-10-16T17:44:21;18.70;99.90